Oakland Township, Michigan
Current Conditions -  °F | °C
As of 4:53 AM on Thursday 23 Oct 2014 (Local Time) from KPTK Reporting Station
Clear Clear  
Wind Chill: 36°   Ceiling: Unl
Heat Index: 36°   Visibility: 10mi
Dew Point: 33°   Wind: 3mph
Humidity: 89%   Direction: 280°W
Pressure: 30.24"   Gusts: NA
Location:  42.7595°N, 83.2105°W
Report Text: KPTK 230853Z AUTO 28003KT 10SM CLR 02/01 A3024 RMK AO2 SLP246 T00220006 56007
Loading
Personal Weather Stations






























Interactive Weather Map
Tropical Storm Tracking
New forecast layout! Learn more

10-Day Weather Forecast

Advertisements
Track Severe Weather on mobile